Aigle Des Mers — FO4883 — position and weather

sailwx.info

Track history (hours):
 
Tides and Currents Weather Stations Pressure Air Temp Water Temp Dewpoint Dewpoint Depression Visibility Wind Speed Wind Dir Waves Ship Positions

Aigle Des Mers

Last reported at 2015-Mar-05 18:33 UTC. Time now 2015-Mar-05 18:43 UTC.
Position N 48°07' W 004°28'.

Type: Fishing. MMSI: 227318010.

Date/timePositionNaut miles runAvg speedWind from/ knotsBaromVisibWave heightAir tempDewpointWater temp
2015-Mar-05 18:33N 48°07' W 004°28'1 1.5
2015-Mar-05 17:33N 48°07' W 004°26'0 0.3
2015-Mar-05 16:34N 48°07' W 004°26'5 0.3
2015-Mar-04 23:20N 48°06' W 004°19'1 1.4
2015-Mar-04 22:33N 48°07' W 004°20'7 7.0
2015-Mar-04 21:34N 48°08' W 004°30'2 2.0
2015-Mar-04 20:33N 48°10' W 004°28'2 1.7
2015-Mar-04 19:33N 48°11' W 004°30'4 4.0
2015-Mar-04 18:33N 48°07' W 004°26'1 0.6
2015-Mar-04 17:33N 48°08' W 004°26'1 1.2
2015-Mar-04 16:33N 48°08' W 004°25'3 0.1
2015-Mar-02 18:34N 48°07' W 004°20'5 5.4
2015-Mar-02 17:34N 48°10' W 004°27'2 2.0
2015-Mar-02 16:33N 48°09' W 004°24'5 4.9
2015-Mar-02 15:34N 48°06' W 004°19'  
2015-Feb-26 22:33N 48°06' W 004°19'5 4.6
2015-Feb-26 21:34N 48°09' W 004°24'4 3.8
2015-Feb-26 20:33N 48°12' W 004°28'2 2.0
2015-Feb-26 19:33N 48°11' W 004°31'3 2.9
2015-Feb-26 18:33N 48°11' W 004°26'2 2.4
2015-Feb-26 17:34N 48°11' W 004°30'  
Track history (hours):
 
Tides and Currents Weather Stations Pressure Air Temp Water Temp Dewpoint Dewpoint Depression Visibility Wind Speed Wind Dir Waves Ship Positions

Aigle Des Mers

Last reported at 2015-Mar-05 18:33 UTC. Time now 2015-Mar-05 18:43 UTC.
Position N 48°07' W 004°28'.

Type: Fishing. MMSI: 227318010.

Date/timePositionNaut miles runAvg speedWind from/ knotsBaromVisibWave heightAir tempDewpointWater temp
2015-Mar-05 18:33N 48°07' W 004°28'1 1.5
2015-Mar-05 17:33N 48°07' W 004°26'0 0.3
2015-Mar-05 16:34N 48°07' W 004°26'5 0.3
2015-Mar-04 23:20N 48°06' W 004°19'1 1.4
2015-Mar-04 22:33N 48°07' W 004°20'7 7.0
2015-Mar-04 21:34N 48°08' W 004°30'2 2.0
2015-Mar-04 20:33N 48°10' W 004°28'2 1.7
2015-Mar-04 19:33N 48°11' W 004°30'4 4.0
2015-Mar-04 18:33N 48°07' W 004°26'1 0.6
2015-Mar-04 17:33N 48°08' W 004°26'1 1.2
2015-Mar-04 16:33N 48°08' W 004°25'3 0.1
2015-Mar-02 18:34N 48°07' W 004°20'5 5.4
2015-Mar-02 17:34N 48°10' W 004°27'2 2.0
2015-Mar-02 16:33N 48°09' W 004°24'5 4.9
2015-Mar-02 15:34N 48°06' W 004°19'  
2015-Feb-26 22:33N 48°06' W 004°19'5 4.6
2015-Feb-26 21:34N 48°09' W 004°24'4 3.8
2015-Feb-26 20:33N 48°12' W 004°28'2 2.0
2015-Feb-26 19:33N 48°11' W 004°31'3 2.9
2015-Feb-26 18:33N 48°11' W 004°26'2 2.4
2015-Feb-26 17:34N 48°11' W 004°30'  

Dump ship's entire track history